Edenton, North Carolina
Current Conditions -  °F | °C
As of 4:35 AM on Thursday 23 Oct 2014 (Local Time) from KEDE Reporting Station
Overcast Overcast  
Wind Chill: 53°   Ceiling: 4300
Heat Index: 53°   Visibility: 10mi
Dew Point: 46°   Wind: 9mph
Humidity: 77%   Direction: 310°NW
Pressure: 29.92"   Gusts: NA
Location:  36.07°N, 76.6°W
Report Text: KEDE 230835Z AUTO 31008KT 10SM OVC043 12/08 A2992 RMK AO2 T01160077
Loading
Personal Weather Stations






























Interactive Weather Map
Tropical Storm Tracking
New forecast layout! Learn more

10-Day Weather Forecast

Advertisements
Track Severe Weather on mobile